Airfield :
LOGIN :

Register | Disclaimer

   EN    FR    IT 

 










Legend :    VFR   Marginal VFR   IFR   Intensive IFR   Very Intensive IFR
Visi :
Ceiling :
>= 8 km
>= 3000ft
5 to 8 km
1000 to 3000 ft
1500m to 5 km
500 to 1000 ft
800 to 1500m
200 to 500 ft
< 800m
< 200 ft
Symbols :   Thunderstorms  Fog  Heavy snow  Heavy precipitations  Wind > 20 kt
SIGMETs :     Misc.  Thunderstorms  Icing  Turbulence  Mountain Waves  Volcanic Ashes






- Airport Elevation : 458 ft


LFSI - St-Dizier

CURRENT METAR :
  • 270630Z AUTO 25017KT 4100 RA BR BKN009/// BKN013/// OVC018/// ///TCU 10/09 Q0997

EXPIRED METARs :
  • 270600Z AUTO 25016KT 5000 RA BR BKN009/// OVC023/// ///TCU 10/09 Q0997
  • 270530Z AUTO 26014KT 7000 RA OVC008/// ///TCU 10/09 Q0998
  • 270500Z AUTO 27013KT 5000 RA BR OVC007/// ///TCU 10/09 Q0999
  • 270430Z AUTO 27014KT 5000 -RA BR OVC008/// ///TCU 10/09 Q0999
  • 270400Z AUTO 28014KT 7000 -RA OVC008/// ///TCU 10/10 Q0999

TAF TAF LFSI
Valid from the 27 at 03:00 until the 28 at 03:00 UTC


270200Z 2703/2803 26010KT 8000 RA BKN005
BECMG 2711/2713 NSW BKN015
BECMG 2718/2720 BKN006
TEMPO 2720/2803 OVC003



MET'MAP, your aeronautical weather chart ! - Copyright ORBIFLY December 2007 - Disclaimer

ORBIFLY MET'MAP TEAM :

Programming & Development : Alexandra Zaïnal
Concept & original design : Baudouin d'Aumeries
Assistance for programming : Marc-Olivier Méhu
Technical & hardware support : Manuel Goepfert

Contact : metmap@orbifly.com




SOURCES & CREDITS :

   NOAA